San Mateo, Florida
Current Conditions -  °F | °C
As of 8:15 PM on Saturday 22 Nov 2014 (Local Time) from K28J Reporting Station
Overcast Overcast  
Wind Chill: 68°   Ceiling: 2600
Heat Index: 68°   Visibility: 10mi
Dew Point: 64°   Wind: 9mph
Humidity: 88%   Direction: 100°E
Pressure: 30.17"   Gusts: NA
Location:  29.59°N, 81.6°W
Report Text: K28J 230115Z AUTO 10008KT 10SM BKN026 OVC033 20/18 A3017 RMK AO2
Loading
Personal Weather Stations






























Interactive Weather Map New forecast layout! Learn more

10-Day Weather Forecast

Advertisements
Track Severe Weather on mobile